Historyczne dane pomiarowe

Dodano dane terminowe – wersja testowa.

Dane z okresu 1951-2019

Wersja bazy: 1.34 [2019-03-16, lista zmian], aktualizacja planowana na 2019-04-15

Dane meteo z obszaru Polski uzyskane na podstawie danych udostępnionych przez Instytut Meteorologii i Gospodarki Wodnej – Państwowy Instytut Badawczy.

 

Wybierz Datę:    

       

TemperaturaWilgotnośćWiatrCiśnienieOpadyŚniegCzas trwania zjawisk
 Stacja t tx tn tng RH VA  wxwx mslp ppp RRR   cm mm wxwxwxwxwxwxwx
1983-04-17 9.1 14.5 0.8- 61.3- 6.0 0.7---- 0.0------------
1983-04-18 10.3 16.9 2.8- 55.5- 4.3 1.7---- 0.0------------
1983-04-19 11.6 19.0 5.3- 61.3- 8.0 0.7---- 0.0------------
1983-04-20 14.7 19.6 8.0- 60.5- 5.7 0.7---- 0.0------------
1983-04-21 16.6 24.6 9.1- 60.5- 6.7 1.3---- 0.0------------
1983-04-22 17.2 20.4 15.4- 65.0- 8.0 0.3---- 0.0------------
1983-04-23 11.8 16.0 9.6- 83.0- 7.7 0.3---- 0.0------------
1983-04-24 15.7 22.0 9.6- 66.3- 7.0 0.3---- 0.4------------
1983-04-25 15.0 20.2 10.7- 70.5- 7.3 0.3---- 0.8------------
1983-04-26 16.4 22.7 9.1- 58.3- 6.7 0.0---- 0.0------------
1983-04-27 18.0 23.3 11.0- 54.0- 4.3 2.7---- 4.0------------
1983-04-28 14.9 19.9 10.9- 70.0- 6.7 0.3---- 0.0------------
1983-04-29 14.9 22.1 9.6- 77.3- 8.0 0.7---- 1.4------------
1983-04-30 12.6 16.3 10.1- 69.5- 7.7 1.0---- 0.0------------
1983-05-01 14.2 21.0 6.5- 70.8- 4.7 0.7---- 1.0------------
1983-05-02 10.2 16.9 7.5- 88.8- 8.0 4.3---- 24.6------------
1983-05-03 11.8 17.8 6.3- 63.0- 3.7 1.7---- 0.3------------
1983-05-04 11.7 16.0 5.3- 60.0- 7.7 1.3---- 6.2------------
1983-05-05 8.8 14.0 6.1- 80.5- 8.0 1.0---- 2.0------------
1983-05-06 6.7 8.9 5.3- 90.3- 8.0 1.0---- 6.4------------
1983-05-07 9.8 16.5 3.3- 74.8- 5.3 0.0---- 0.0------------
1983-05-08 11.1 16.7 5.3- 71.0- 8.0 0.3---- 5.5------------
1983-05-09 10.4 13.6 8.7- 90.8- 8.0 0.7---- 6.3------------
1983-05-10 13.1 17.4 9.2- 76.3- 5.3 0.0---- 0.0------------
1983-05-11 13.7 17.5 8.1- 77.3- 6.7 0.3---- 0.0------------
1983-05-12 16.4 21.4 10.5- 62.8- 4.7 1.3---- 0.0------------
1983-05-13 19.2 23.4 12.6- 63.5- 7.0 0.0---- 1.3------------
1983-05-14 18.9 24.4 13.6- 70.8- 5.7 1.0---- 0.0------------
1983-05-15 21.9 28.6 14.9- 68.0- 5.0 0.7---- 0.0------------
1983-05-16 24.6 31.9 19.0- 51.0- 4.0 0.3---- 0.0------------
142.2 ms

 

Źródłem pochodzenia danych jest Instytut Meteorologii i Gospodarki Wodnej – Państwowy Instytut Badawczy. Dane Instytutu Meteorologii i Gospodarki Wodnej – Państwowego Instytutu Badawczego zostały przetworzone.

Dane źródłowe można odnaleźć na stronie https://dane.imgw.pl